Portada
METAR-TAF:

METAR-TAF

Aeroports :

Rafha, Aràbia Saudita

latitud: 29-37N, longitud: 043-29E, altitud: 449 m

Observació

L'informe es va fer fa 22 minuts, a les 23:00 UTC
Vent 8 kt del Nord/Nord-Est
Temperatura 31°C
Humitat 16%
Pressió 1009 hPa
Visibilitat 10 km o més
sense núvols per sota de 1500 mi sense presència de cumulonimbus.

METAR: OERF 292300Z 02008KT CAVOK 31/02 Q1009

Hora: 02:22 (23:22 UTC)

Pronòstic

L'informe es va fer fa 12 hores i 22 minuts, a les 11:00 UTC
Pronòstic vàlid del 29 a les 12 UTC al 30 a les 18 UTC
Vent 12 kt del Nord/Nord-Oest
Visibilitat 10 km o més
sense núvols per sota de 1500 mi sense presència de cumulonimbus.
Evolucionant progressivament
l' 29 a les 20 UTC al 29 a les 22 UTC
Vent 8 kt del Sud/Sud-Est

TAF: OERF 291100Z 2912/3018 33012KT CAVOK BECMG 2920/2922 16008KT

Observacions i pronòstics meteorològics de més de 4000 aeroports (METAR i TAF).

Les estacions disponibles són els punts grocs i vermells al mapa.

Posi el ratolí al punt desitjat per veure el nom de l'estació.

Feu clic per veure les observacions i els pronòstics meteorològics.

Per canviar el mapa: feu clic els botons verds amb una creu de color negre per apropar; al botó verd amb un guió per allunyar la imatge; o en les fletxes verdes per a mapes adjacents.


METAR-TAF: